createdAt,value
2022-09-07T00:00:59.668Z,18.73
2022-09-07T00:03:28.599Z,18.55
2022-09-07T00:05:56.137Z,18.55
2022-09-07T00:08:25.652Z,18.45
2022-09-07T00:11:00.679Z,18.45
2022-09-07T00:13:30.459Z,18.31
2022-09-07T00:16:05.391Z,18.33
2022-09-07T00:18:32.950Z,18.29
2022-09-07T00:21:03.057Z,18.29
2022-09-07T00:23:31.300Z,18.37
2022-09-07T00:26:04.400Z,18.26
2022-09-07T00:28:32.751Z,18.14
2022-09-07T00:31:00.348Z,18.20
2022-09-07T00:33:27.894Z,18.19
2022-09-07T00:35:58.517Z,18.26
2022-09-07T00:38:26.022Z,18.10
2022-09-07T00:40:53.359Z,18.27
2022-09-07T00:43:36.868Z,18.02
2022-09-07T00:46:05.203Z,18.05
2022-09-07T00:48:37.385Z,17.99
2022-09-07T00:51:10.381Z,17.98
2022-09-07T00:53:39.760Z,17.94
2022-09-07T00:56:07.590Z,18.05
2022-09-07T00:58:37.355Z,17.88
2022-09-07T01:01:05.202Z,17.91
2022-09-07T01:03:38.623Z,17.86
2022-09-07T01:06:29.069Z,17.92
2022-09-07T01:09:01.494Z,17.93
2022-09-07T01:11:31.116Z,17.91
2022-09-07T01:13:58.570Z,17.99
2022-09-07T01:16:47.297Z,17.94
2022-09-07T01:19:26.961Z,17.79
2022-09-07T01:22:06.384Z,17.95
2022-09-07T01:24:49.116Z,17.79
2022-09-07T01:27:27.431Z,17.85
2022-09-07T01:30:05.859Z,17.95
2022-09-07T01:32:36.144Z,17.92
2022-09-07T01:35:10.293Z,17.90
2022-09-07T01:37:56.754Z,17.86
2022-09-07T01:40:35.380Z,17.77
2022-09-07T01:43:07.930Z,17.83
2022-09-07T01:45:37.551Z,17.85
2022-09-07T01:48:07.450Z,17.83
2022-09-07T01:50:45.851Z,17.80
2022-09-07T01:53:19.890Z,17.80
2022-09-07T01:55:51.416Z,17.68
2022-09-07T01:58:29.802Z,17.66
2022-09-07T02:01:07.085Z,17.61
2022-09-07T02:03:42.585Z,17.70
2022-09-07T02:06:17.124Z,17.64
2022-09-07T02:09:03.522Z,17.62
2022-09-07T02:11:37.725Z,17.88
2022-09-07T02:14:07.494Z,17.79
2022-09-07T02:16:39.424Z,17.66
2022-09-07T02:19:13.909Z,17.58
2022-09-07T02:21:44.406Z,17.55
2022-09-07T02:24:19.547Z,17.53
2022-09-07T02:26:49.266Z,17.41
2022-09-07T02:29:17.073Z,17.51
2022-09-07T02:31:44.533Z,17.49
2022-09-07T02:34:12.174Z,17.52
2022-09-07T02:36:47.135Z,17.57
2022-09-07T02:39:16.421Z,17.64
2022-09-07T02:41:45.328Z,17.49
2022-09-07T02:44:19.912Z,17.54
2022-09-07T02:47:09.925Z,17.44
2022-09-07T02:50:11.053Z,17.51
2022-09-07T02:53:10.698Z,17.43
2022-09-07T02:56:00.609Z,17.45
2022-09-07T02:58:40.088Z,17.41
2022-09-07T03:01:14.689Z,17.38
2022-09-07T03:04:01.840Z,17.39
2022-09-07T03:06:34.380Z,17.36
2022-09-07T03:09:07.564Z,17.28
2022-09-07T03:11:38.433Z,17.35
2022-09-07T03:14:19.788Z,17.32
2022-09-07T03:16:52.819Z,17.29
2022-09-07T03:19:23.399Z,17.25
2022-09-07T03:21:50.931Z,17.21
2022-09-07T03:24:18.252Z,17.37
2022-09-07T03:26:47.353Z,17.19
2022-09-07T03:29:15.436Z,17.21
2022-09-07T03:31:43.159Z,17.15
2022-09-07T03:34:11.338Z,17.17
2022-09-07T03:36:39.456Z,17.18
2022-09-07T03:39:06.917Z,17.13
2022-09-07T03:41:34.773Z,17.05
2022-09-07T03:44:03.894Z,16.96
2022-09-07T03:46:32.050Z,16.97
2022-09-07T03:49:02.636Z,17.04
2022-09-07T03:51:30.196Z,17.03
2022-09-07T03:53:57.643Z,17.04
2022-09-07T03:56:25.827Z,17.11
2022-09-07T03:58:54.170Z,16.92
2022-09-07T04:01:23.734Z,16.99
2022-09-07T04:03:52.405Z,17.00
2022-09-07T04:06:20.131Z,17.04
2022-09-07T04:08:47.790Z,16.97
2022-09-07T04:11:19.784Z,16.93
2022-09-07T04:13:47.138Z,16.99
2022-09-07T04:16:23.814Z,17.03
2022-09-07T04:18:53.907Z,17.04
2022-09-07T04:21:23.180Z,16.96
2022-09-07T04:23:50.733Z,16.90
2022-09-07T04:26:21.102Z,17.02
2022-09-07T04:28:49.384Z,16.87
2022-09-07T04:31:20.920Z,17.05
2022-09-07T04:33:49.851Z,16.93
2022-09-07T04:36:18.866Z,16.98
2022-09-07T04:38:46.728Z,16.99
2022-09-07T04:41:20.476Z,17.09
2022-09-07T04:43:48.209Z,17.37
2022-09-07T04:46:20.609Z,17.37
2022-09-07T04:48:56.075Z,17.39
2022-09-07T04:51:25.693Z,17.41
2022-09-07T04:53:55.695Z,17.46
2022-09-07T04:56:24.013Z,17.49
2022-09-07T04:58:52.118Z,17.44
2022-09-07T05:01:22.252Z,17.53
2022-09-07T05:03:50.235Z,17.37
2022-09-07T05:06:19.260Z,17.42
2022-09-07T05:08:49.071Z,17.48
2022-09-07T05:11:17.148Z,17.51
2022-09-07T05:13:45.496Z,17.42
2022-09-07T05:16:14.441Z,17.52
2022-09-07T05:18:42.166Z,17.42
2022-09-07T05:21:11.559Z,17.60
2022-09-07T05:23:39.756Z,17.60
2022-09-07T05:26:07.759Z,17.63
2022-09-07T05:28:36.122Z,17.22
2022-09-07T05:31:23.413Z,17.17
2022-09-07T05:37:19.188Z,17.53
2022-09-07T05:40:08.042Z,17.53
2022-09-07T05:42:55.719Z,17.47
2022-09-07T05:45:43.780Z,17.59
2022-09-07T05:48:31.506Z,17.80
2022-09-07T05:51:19.549Z,17.88
2022-09-07T05:54:07.096Z,17.98
2022-09-07T05:56:54.983Z,18.23
2022-09-07T05:59:42.529Z,18.08
2022-09-07T06:02:30.473Z,18.16
2022-09-07T06:05:18.419Z,18.25
2022-09-07T06:08:06.010Z,18.22
2022-09-07T06:10:53.868Z,18.38
2022-09-07T06:13:41.416Z,18.40
2022-09-07T06:16:29.321Z,18.49
2022-09-07T06:19:16.960Z,18.40
2022-09-07T06:22:04.836Z,18.60
2022-09-07T06:24:52.384Z,18.68
2022-09-07T06:27:40.258Z,18.74
2022-09-07T06:30:27.803Z,18.80
2022-09-07T06:33:18.087Z,18.98
2022-09-07T06:36:18.374Z,19.09
2022-09-07T06:39:06.261Z,19.13
2022-09-07T06:42:01.244Z,19.33
2022-09-07T06:44:49.838Z,19.38
2022-09-07T06:47:37.422Z,19.49
2022-09-07T06:50:25.439Z,19.57
2022-09-07T06:53:44.520Z,19.70
2022-09-07T06:56:20.967Z,19.77
2022-09-07T06:59:08.583Z,19.88
2022-09-07T07:01:56.435Z,19.93
2022-09-07T07:04:44.041Z,20.11
2022-09-07T07:07:31.905Z,20.23
2022-09-07T07:10:24.328Z,20.17
2022-09-07T07:13:12.892Z,20.28
2022-09-07T07:16:08.584Z,20.57
2022-09-07T07:18:56.755Z,20.69
2022-09-07T07:22:07.698Z,20.77
2022-09-07T07:24:52.184Z,21.16
2022-09-07T07:27:39.819Z,21.52
2022-09-07T07:30:27.695Z,21.67
2022-09-07T07:33:15.352Z,21.79
2022-09-07T07:36:32.272Z,21.89
2022-09-07T07:42:27.694Z,22.21
2022-09-07T07:51:12.284Z,22.34
2022-09-07T07:54:00.382Z,22.58
2022-09-07T07:56:48.114Z,22.60
2022-09-07T07:59:36.017Z,22.77
2022-09-07T08:02:23.941Z,22.98
2022-09-07T08:05:11.841Z,23.25
2022-09-07T08:07:59.393Z,22.88
2022-09-07T08:10:47.388Z,22.92
2022-09-07T08:13:36.174Z,22.76
2022-09-07T08:16:24.118Z,23.00
2022-09-07T08:19:11.739Z,23.11
2022-09-07T08:21:59.489Z,23.59
2022-09-07T08:24:46.969Z,23.93
2022-09-07T08:27:35.200Z,23.99
2022-09-07T08:30:22.720Z,24.11
2022-09-07T08:33:10.518Z,24.31
2022-09-07T08:36:00.000Z,24.49
2022-09-07T08:38:48.075Z,24.64
2022-09-07T08:41:38.649Z,24.66
2022-09-07T08:44:32.652Z,24.85
2022-09-07T08:47:37.041Z,24.95
2022-09-07T08:50:29.513Z,24.95
2022-09-07T08:53:18.513Z,25.15
2022-09-07T08:56:08.301Z,25.23
2022-09-07T08:58:55.803Z,25.33
2022-09-07T09:02:26.307Z,25.31
2022-09-07T09:08:23.355Z,25.40
2022-09-07T09:11:21.942Z,25.68
2022-09-07T09:14:48.587Z,25.99
2022-09-07T09:18:14.599Z,25.91
2022-09-07T09:21:05.279Z,25.92
2022-09-07T09:23:54.969Z,25.99
2022-09-07T09:26:45.475Z,26.24
2022-09-07T09:29:33.241Z,26.24
2022-09-07T09:32:35.497Z,26.62
2022-09-07T09:35:35.694Z,26.43
2022-09-07T09:38:31.787Z,26.57
2022-09-07T09:41:19.388Z,26.09
2022-09-07T09:44:15.721Z,26.55
2022-09-07T09:54:20.791Z,27.43
2022-09-07T09:57:15.468Z,27.34
2022-09-07T10:00:08.486Z,27.69
2022-09-07T10:06:22.441Z,27.82
2022-09-07T10:09:17.119Z,28.29
2022-09-07T10:12:07.396Z,27.66
2022-09-07T10:14:55.834Z,28.07
2022-09-07T10:17:47.703Z,28.27
2022-09-07T10:20:37.496Z,28.36
2022-09-07T10:23:27.513Z,27.98
2022-09-07T10:26:26.239Z,28.19
2022-09-07T10:29:30.723Z,27.92
2022-09-07T10:32:20.942Z,27.82
2022-09-07T10:35:28.956Z,27.90
2022-09-07T10:38:21.470Z,28.18
2022-09-07T10:41:10.089Z,28.51
2022-09-07T10:43:57.784Z,28.70
2022-09-07T10:47:00.492Z,29.04
2022-09-07T10:53:42.153Z,29.04
2022-09-07T10:56:36.800Z,29.41
2022-09-07T11:03:25.347Z,29.51
2022-09-07T11:06:17.924Z,29.70
2022-09-07T11:09:42.928Z,29.64
2022-09-07T11:12:34.520Z,29.34
2022-09-07T11:15:26.294Z,29.92
2022-09-07T11:19:35.186Z,29.49
2022-09-07T11:22:14.603Z,29.51
2022-09-07T11:25:36.866Z,28.73
2022-09-07T11:28:28.508Z,28.72
2022-09-07T11:31:25.514Z,29.42
2022-09-07T11:34:39.616Z,29.54
2022-09-07T11:37:36.203Z,29.52
2022-09-07T11:40:57.800Z,29.44
2022-09-07T11:43:56.508Z,29.39
2022-09-07T11:46:46.591Z,29.93
2022-09-07T11:49:34.388Z,29.21
2022-09-07T11:52:41.339Z,29.51
2022-09-07T11:55:32.269Z,30.02
2022-09-07T11:58:22.679Z,29.98
2022-09-07T12:01:27.132Z,29.94
2022-09-07T12:04:29.985Z,29.97
2022-09-07T12:07:20.441Z,29.76
2022-09-07T12:10:29.689Z,29.67
2022-09-07T12:12:59.671Z,28.98
2022-09-07T12:15:47.591Z,29.43
2022-09-07T12:18:42.842Z,29.29
2022-09-07T12:21:36.499Z,29.54
2022-09-07T12:24:03.934Z,29.56
2022-09-07T12:26:38.182Z,29.83
2022-09-07T12:29:19.241Z,29.70
2022-09-07T12:31:57.594Z,30.00
2022-09-07T12:34:31.656Z,29.98
2022-09-07T12:37:03.750Z,29.62
2022-09-07T12:39:32.273Z,29.63
2022-09-07T12:45:28.559Z,30.18
2022-09-07T12:47:59.894Z,29.93
2022-09-07T12:50:28.899Z,29.51
2022-09-07T12:53:18.077Z,29.28
2022-09-07T12:58:57.495Z,29.54
2022-09-07T13:01:49.792Z,29.66
2022-09-07T13:04:20.396Z,29.85
2022-09-07T13:07:03.382Z,29.85
2022-09-07T13:09:33.712Z,29.43
2022-09-07T13:12:03.963Z,29.01
2022-09-07T13:14:34.689Z,29.75
2022-09-07T13:17:29.175Z,30.20
2022-09-07T13:19:56.676Z,30.38
2022-09-07T13:22:30.169Z,29.75
2022-09-07T13:25:26.156Z,29.97
2022-09-07T13:28:33.695Z,29.91
2022-09-07T13:31:09.848Z,30.41
2022-09-07T13:33:50.143Z,30.47
2022-09-07T13:36:36.912Z,30.34
2022-09-07T13:39:07.994Z,30.32
2022-09-07T13:41:38.243Z,30.14
2022-09-07T13:44:05.482Z,30.71
2022-09-07T13:46:50.133Z,30.39
2022-09-07T13:49:43.379Z,30.17
2022-09-07T13:52:57.209Z,30.25
2022-09-07T13:55:44.886Z,29.99
2022-09-07T13:58:37.927Z,30.04
2022-09-07T14:01:27.281Z,29.54
2022-09-07T14:04:42.136Z,29.78
2022-09-07T14:07:15.211Z,30.38
2022-09-07T14:09:43.064Z,30.01
2022-09-07T14:12:21.042Z,30.25
2022-09-07T14:15:09.347Z,30.79
2022-09-07T14:17:36.755Z,29.79
2022-09-07T14:20:04.692Z,30.08
2022-09-07T14:22:34.352Z,30.19
2022-09-07T14:25:04.500Z,30.14
2022-09-07T14:27:36.768Z,29.62
2022-09-07T14:30:24.959Z,30.01
2022-09-07T14:32:54.537Z,29.76
2022-09-07T14:35:25.238Z,30.27
2022-09-07T14:37:53.248Z,30.03
2022-09-07T14:40:22.741Z,30.28
2022-09-07T14:42:51.012Z,29.70
2022-09-07T14:45:24.859Z,29.46
2022-09-07T14:47:54.116Z,29.26
2022-09-07T14:50:27.759Z,29.48
2022-09-07T14:55:46.951Z,30.26
2022-09-07T14:58:14.147Z,30.27
2022-09-07T15:00:43.125Z,29.67
2022-09-07T15:03:29.481Z,29.38
2022-09-07T15:06:01.373Z,29.26
2022-09-07T15:08:47.439Z,29.24
2022-09-07T15:11:36.656Z,29.25
2022-09-07T15:14:12.025Z,29.09
2022-09-07T15:16:43.960Z,29.16
2022-09-07T15:19:14.972Z,29.13
2022-09-07T15:21:44.787Z,28.96
2022-09-07T15:24:12.545Z,29.16
2022-09-07T15:29:30.023Z,28.59
2022-09-07T15:32:04.866Z,28.53
2022-09-07T15:34:34.386Z,28.07
2022-09-07T15:40:25.718Z,27.91
2022-09-07T15:43:28.702Z,28.21
2022-09-07T15:46:25.955Z,27.93
2022-09-07T15:48:55.940Z,28.09
2022-09-07T15:54:31.063Z,28.02
2022-09-07T16:00:35.386Z,28.11
2022-09-07T16:03:23.381Z,27.90
2022-09-07T16:06:13.786Z,27.74
2022-09-07T16:09:21.825Z,27.58
2022-09-07T16:15:19.020Z,27.85
2022-09-07T16:18:06.782Z,27.65
2022-09-07T16:21:03.742Z,27.53
2022-09-07T16:23:53.076Z,27.40
2022-09-07T16:26:44.108Z,27.29
2022-09-07T16:29:32.957Z,27.08
2022-09-07T16:35:28.618Z,26.82
2022-09-07T16:41:30.583Z,26.63
2022-09-07T16:44:18.564Z,26.37
2022-09-07T16:47:07.846Z,26.17
2022-09-07T16:49:56.101Z,25.99
2022-09-07T16:52:43.870Z,25.91
2022-09-07T16:55:31.855Z,25.73
2022-09-07T17:01:30.126Z,25.45
2022-09-07T17:04:18.027Z,25.26
2022-09-07T17:07:08.782Z,25.07
2022-09-07T17:09:56.498Z,25.02
2022-09-07T17:12:44.524Z,24.90
2022-09-07T17:15:35.674Z,25.02
2022-09-07T17:21:33.157Z,24.91
2022-09-07T17:24:24.514Z,24.93
2022-09-07T17:27:13.315Z,24.42
2022-09-07T17:30:01.458Z,24.52
2022-09-07T17:32:49.146Z,24.52
2022-09-07T17:35:38.483Z,24.42
2022-09-07T17:41:34.338Z,24.49
2022-09-07T17:44:22.547Z,24.32
2022-09-07T17:47:10.551Z,24.37
2022-09-07T17:49:58.253Z,24.28
2022-09-07T17:52:52.919Z,24.06
2022-09-07T17:55:40.816Z,23.73
2022-09-07T17:58:28.905Z,23.55
2022-09-07T18:01:18.640Z,23.41
2022-09-07T18:04:11.343Z,23.34
2022-09-07T18:07:04.517Z,23.23
2022-09-07T18:09:52.579Z,23.23
2022-09-07T18:12:40.301Z,23.04
2022-09-07T18:15:28.340Z,23.02
2022-09-07T18:18:16.426Z,23.09
2022-09-07T18:21:11.588Z,23.15
2022-09-07T18:24:04.657Z,22.98
2022-09-07T18:26:53.719Z,23.06
2022-09-07T18:29:44.519Z,23.08
2022-09-07T18:32:32.561Z,22.98
2022-09-07T18:35:23.148Z,22.95
2022-09-07T18:38:11.635Z,23.13
2022-09-07T18:41:13.651Z,23.17
2022-09-07T18:44:01.882Z,23.18
2022-09-07T18:46:49.858Z,23.18
2022-09-07T18:49:37.850Z,23.18
2022-09-07T18:55:37.607Z,23.11
2022-09-07T18:58:25.261Z,23.05
2022-09-07T19:01:17.863Z,23.17
2022-09-07T19:04:05.564Z,23.09
2022-09-07T19:06:53.555Z,23.17
2022-09-07T19:09:41.267Z,23.06
2022-09-07T19:12:29.325Z,23.21
2022-09-07T19:15:22.031Z,23.07
2022-09-07T19:18:10.415Z,23.02
2022-09-07T19:21:03.052Z,22.93
2022-09-07T19:23:57.649Z,22.85
2022-09-07T19:26:47.609Z,22.92
2022-09-07T19:29:40.633Z,22.79
2022-09-07T19:32:30.885Z,22.76
2022-09-07T19:35:18.701Z,22.65
2022-09-07T19:38:06.215Z,22.45
2022-09-07T19:40:58.106Z,22.41
2022-09-07T19:43:46.717Z,22.46
2022-09-07T19:46:40.748Z,22.51
2022-09-07T19:49:29.048Z,22.41
2022-09-07T19:52:15.843Z,22.64
2022-09-07T19:55:01.773Z,22.65
2022-09-07T19:57:48.164Z,22.64
2022-09-07T20:00:34.210Z,22.67
2022-09-07T20:03:20.558Z,22.80
2022-09-07T20:06:18.003Z,22.83
2022-09-07T20:09:06.786Z,22.84
2022-09-07T20:11:54.271Z,22.81
2022-09-07T20:14:42.069Z,22.83
2022-09-07T20:17:33.146Z,22.90
2022-09-07T20:20:23.045Z,23.02
2022-09-07T20:23:10.512Z,23.00
2022-09-07T20:25:59.715Z,23.08
2022-09-07T20:29:05.849Z,23.02
2022-09-07T20:32:00.419Z,23.07
2022-09-07T20:38:02.574Z,23.03
2022-09-07T20:40:58.660Z,22.96
2022-09-07T20:43:47.380Z,22.90
2022-09-07T20:46:34.939Z,22.86
2022-09-07T20:49:22.801Z,22.88
2022-09-07T20:52:10.257Z,22.83
2022-09-07T20:54:58.082Z,22.91
2022-09-07T20:57:45.568Z,22.88
2022-09-07T21:00:33.411Z,23.05
2022-09-07T21:03:21.075Z,23.02
2022-09-07T21:06:08.832Z,22.96
2022-09-07T21:08:56.772Z,22.87
2022-09-07T21:11:49.014Z,22.85
2022-09-07T21:14:37.255Z,22.84
2022-09-07T21:17:25.088Z,22.66
2022-09-07T21:20:12.972Z,22.72
2022-09-07T21:23:03.821Z,22.64
2022-09-07T21:25:51.364Z,22.59
2022-09-07T21:28:39.131Z,22.66
2022-09-07T21:31:27.666Z,22.54
2022-09-07T21:34:16.032Z,22.59
2022-09-07T21:37:03.539Z,22.50
2022-09-07T21:39:51.406Z,22.48
2022-09-07T21:42:39.020Z,22.53
2022-09-07T21:45:26.817Z,22.51
2022-09-07T21:48:14.289Z,22.37
2022-09-07T21:51:02.337Z,22.44
2022-09-07T21:53:57.417Z,22.39
2022-09-07T21:56:46.849Z,22.22
2022-09-07T21:59:34.493Z,22.19
2022-09-07T22:02:22.384Z,22.18
2022-09-07T22:05:10.245Z,22.09
2022-09-07T22:07:57.748Z,22.09
2022-09-07T22:10:45.674Z,22.03
2022-09-07T22:13:33.341Z,22.00
2022-09-07T22:16:21.572Z,22.04
2022-09-07T22:19:09.106Z,21.94
2022-09-07T22:21:56.883Z,21.95
2022-09-07T22:24:44.392Z,21.87
2022-09-07T22:27:32.171Z,21.89
2022-09-07T22:30:19.842Z,21.95
2022-09-07T22:33:07.610Z,21.99
2022-09-07T22:35:55.089Z,22.01
2022-09-07T22:38:44.596Z,21.97
2022-09-07T22:41:33.727Z,21.87
2022-09-07T22:44:21.739Z,21.96
2022-09-07T22:47:09.855Z,22.07
2022-09-07T22:49:57.663Z,22.20
2022-09-07T22:52:45.163Z,22.11
2022-09-07T22:55:32.924Z,22.08
2022-09-07T22:58:20.560Z,22.12
2022-09-07T23:01:08.412Z,22.14
2022-09-07T23:03:56.345Z,22.02
2022-09-07T23:06:44.274Z,22.03
2022-09-07T23:09:31.754Z,22.03
2022-09-07T23:12:19.547Z,22.08
2022-09-07T23:15:07.382Z,22.18
2022-09-07T23:17:55.295Z,22.01
2022-09-07T23:20:42.766Z,22.11
2022-09-07T23:23:30.592Z,21.94
2022-09-07T23:26:19.239Z,22.00
2022-09-07T23:29:07.377Z,21.89
2022-09-07T23:31:54.927Z,21.94
2022-09-07T23:34:42.753Z,21.72
2022-09-07T23:37:30.253Z,21.95
2022-09-07T23:40:18.045Z,21.71
2022-09-07T23:43:05.526Z,21.61
2022-09-07T23:45:53.683Z,21.72
2022-09-07T23:48:43.739Z,21.72
2022-09-07T23:51:31.540Z,21.67
2022-09-07T23:54:19.045Z,21.51
2022-09-07T23:57:06.844Z,21.32
2022-09-07T23:59:54.352Z,21.31
